Ridgway, IL (62979)

8:55 AM CDT on August 01, 2015 (GMT -0500)
1 BLOCK N.OF MAIN ST.RIDGWAY,IL. | | Change Station
CLOSE
Current Station
Personal Weather Station
Location: Ridgway, IL
Elevation: 377 ft
Nearby Weather Stations

Elev 377 ft 37.80 °N, 88.26 °W | Updated 11 seconds ago

Clear
Clear
75.4 °F
Feels Like 76 °F
N
0.0
Wind Variable Wind from NNE
Gusts 0.5 mph

Today
High -- | Low -- °F
--% Chance of Precip.
Yesterday
High -- | Low -- °F
Precip. -- in
5:56 AM 8:01 PM
Full, 98% visible
Pressure 30.07 in
Visibility 10.0 miles
Clouds Clear
Heat Index 76 °F
Dew Point 69 °F
Humidity 80%
Rainfall 0.00 in
Snow Depth Not available.
UV 3 out of 12
Pollen 5.70 out of 12
Air Quality Not available.
Flu Activity Not available.
METAR KHSB 011335Z AUTO 03004KT 10SM CLR 25/19 A3007 RMK AO2 T02490193

More Conditions Fewer Conditions

Pressure 30.07 in
Visibility 10.0 miles
Clouds Clear
Heat Index 76 °F
Dew Point 69 °F
Humidity 80%
Rainfall 0.00 in
Snow Depth Not available.
UV 3 out of 12
Pollen 5.70 out of 12
Air Quality Not available.
Flu Activity Not available.
METAR KHSB 011335Z AUTO 03004KT 10SM CLR 25/19 A3007 RMK AO2 T02490193

More Conditions Fewer Conditions

10-Day Weather Forecast

×

Almanac

Astronomy

Aug. 01, 2015 Rise Set
Actual Time
Civil Twilight
Nautical Twilight
Astronomical Twilight
Moon
Length of Visible Light
Length of Day
Tomorrow will be .
, % of the Moon is Illuminated

Today's Extremes

State Highs State Lows

Community

WunderPhotos

Upload Photos

1,842,940 photos uploaded!

WunderBlogs® & News

Nearby

Air Quality

  Air Quality AQ Index Pollutant
Not available.

Snow Depth

Station Depth Elevation

Earthquake Activity

City Distance Mag. Time & Date
Minimum magnitude displayed is 2.5.

Coastal Water Temperatures

Place Temperature

Stations

Nearby Weather Stations

Station Location Temp. Windchill Dew Point Humidity Wind Precip. Elev Updated Type